CheckWX is a tool to help pilots better visualize weather data.  It is not intended as a substitute for an official pre-flight weather briefing.

01:04:28 UTC

KMLB METAR
Melbourne International Airport
Melbourne, Florida, USA
Current

11 mins ago

KMLB 240053Z 15008KT 10SM FEW085 25/21 A3009 RMK AO2 SLP189 T02500206
Observed
Feb-24 @ 00:53 UTC
Wind
  • 150° at 8 KTS
Visibility
10 SM
Flight Rules
VFR
Cloud Levels
  • Few at 8,500' AGL
Temperature
25°C / 77°F
Dewpoint
21°C / 70°F
Humidity
79%
Altimeter
30.09" Hg
Pressure
1018.9 hPa
Previous

1 hour ago

KMLB 232353Z 15008KT 10SM CLR 26/21 A3008 RMK AO2 SLP185 60000 T02560206 10283 20256 53006
Observed
Feb-23 @ 23:53 UTC
Wind
  • 150° at 8 KTS
Visibility
10 SM
Flight Rules
VFR
Cloud Levels
  • Clear skies
Temperature
26°C / 79°F
Dewpoint
21°C / 70°F
Humidity
74%
Altimeter
30.08" Hg
Pressure
1018.5 hPa
Previous

2 hours ago

KMLB 232253Z 13011KT 10SM CLR 26/21 A3007 RMK AO2 SLP180 T02610211
Observed
Feb-23 @ 22:53 UTC
Wind
  • 130° at 11 KTS
Visibility
10 SM
Flight Rules
VFR
Cloud Levels
  • Clear skies
Temperature
26°C / 79°F
Dewpoint
21°C / 70°F
Humidity
74%
Altimeter
30.07" Hg
Pressure
1018 hPa